createdAt,value
2023-02-27T04:42:16.640Z,2.92
2023-02-27T04:45:23.385Z,2.72
2023-02-27T04:48:55.234Z,2.30
2023-02-27T04:52:10.412Z,2.70
2023-02-27T04:55:32.858Z,2.40
2023-02-27T04:58:45.001Z,2.92
2023-02-27T05:01:51.443Z,2.53
2023-02-27T05:04:58.771Z,3.35
2023-02-27T05:08:10.176Z,2.42
2023-02-27T05:11:23.282Z,2.65
2023-02-27T05:14:44.881Z,2.67
2023-02-27T05:17:50.250Z,2.45
2023-02-27T05:21:08.520Z,2.65
2023-02-27T05:24:38.789Z,2.75
2023-02-27T05:28:09.781Z,2.72
2023-02-27T05:31:28.603Z,2.87
2023-02-27T05:34:57.278Z,3.08
2023-02-27T05:38:28.893Z,2.50
2023-02-27T05:41:37.308Z,2.45
2023-02-27T05:44:45.191Z,2.42
2023-02-27T05:47:55.939Z,3.20
2023-02-27T05:50:59.579Z,2.90
2023-02-27T05:54:18.380Z,2.55
2023-02-27T05:57:29.649Z,2.62
2023-02-27T06:00:41.112Z,2.60
2023-02-27T06:03:43.961Z,2.47
2023-02-27T06:06:46.524Z,2.50
2023-02-27T06:09:50.032Z,2.17
2023-02-27T06:12:52.516Z,2.65
2023-02-27T06:15:55.161Z,2.45
2023-02-27T06:19:04.624Z,2.08
2023-02-27T06:22:07.660Z,3.72
2023-02-27T06:25:10.282Z,2.80
2023-02-27T06:28:13.114Z,1.98
2023-02-27T06:31:17.475Z,2.58
2023-02-27T06:34:20.110Z,2.58
2023-02-27T06:37:23.249Z,2.00
2023-02-27T06:43:28.673Z,2.10
2023-02-27T06:46:31.496Z,2.47
2023-02-27T06:49:34.328Z,2.85
2023-02-27T06:52:39.081Z,2.83
2023-02-27T06:55:42.052Z,2.20
2023-02-27T06:58:44.916Z,2.30
2023-02-27T07:01:48.405Z,2.43
2023-02-27T07:04:52.321Z,2.10
2023-02-27T07:07:57.783Z,2.35
2023-02-27T07:11:01.797Z,2.25
2023-02-27T07:14:04.599Z,2.87
2023-02-27T07:17:07.262Z,2.05
2023-02-27T07:20:11.837Z,2.73
2023-02-27T07:23:14.815Z,2.45
2023-02-27T07:26:17.166Z,3.85
2023-02-27T07:29:19.932Z,2.80
2023-02-27T07:32:22.625Z,2.33
2023-02-27T07:35:25.309Z,2.42
2023-02-27T07:38:28.935Z,2.75
2023-02-27T07:41:32.554Z,2.47
2023-02-27T07:44:35.704Z,2.50
2023-02-27T07:47:38.502Z,2.40
2023-02-27T07:50:41.031Z,2.25
2023-02-27T07:53:43.750Z,3.40
2023-02-27T07:56:46.423Z,2.83
2023-02-27T07:59:49.147Z,2.85
2023-02-27T08:02:51.574Z,2.37
2023-02-27T08:05:54.283Z,2.22
2023-02-27T08:08:56.764Z,2.10
2023-02-27T08:11:59.672Z,2.40
2023-02-27T08:15:02.576Z,3.28
2023-02-27T08:21:08.342Z,3.65
2023-02-27T08:24:11.137Z,2.30
2023-02-27T08:27:14.673Z,1.95
2023-02-27T08:30:18.965Z,2.62
2023-02-27T08:33:22.637Z,2.83
2023-02-27T08:36:25.816Z,2.40
2023-02-27T08:39:29.881Z,2.60
2023-02-27T08:42:34.013Z,2.35
2023-02-27T08:45:36.482Z,2.00
2023-02-27T08:48:39.361Z,3.63
2023-02-27T08:51:42.035Z,3.30
2023-02-27T08:54:45.134Z,2.87
2023-02-27T08:57:48.334Z,3.37
2023-02-27T09:00:51.376Z,2.45
2023-02-27T09:03:54.281Z,3.35
2023-02-27T09:06:57.494Z,2.90
2023-02-27T09:10:00.423Z,2.67
2023-02-27T09:13:03.707Z,3.83
2023-02-27T09:16:06.982Z,5.37
2023-02-27T09:19:09.908Z,3.72
2023-02-27T09:22:12.369Z,2.95
2023-02-27T09:25:15.211Z,3.00
2023-02-27T09:28:17.828Z,3.25
2023-02-27T09:31:20.670Z,2.50
2023-02-27T09:34:23.408Z,3.58
2023-02-27T09:37:26.699Z,3.00
2023-02-27T09:40:32.766Z,3.05
2023-02-27T09:43:43.843Z,2.85
2023-02-27T09:46:46.703Z,3.97
2023-02-27T09:50:03.985Z,4.10
2023-02-27T09:53:13.750Z,3.33
2023-02-27T09:56:30.649Z,3.83
2023-02-27T09:59:57.807Z,3.45
2023-02-27T10:03:36.270Z,3.50
2023-02-27T10:06:52.805Z,3.05
2023-02-27T10:10:07.396Z,4.03
2023-02-27T10:13:16.470Z,3.33
2023-02-27T10:16:21.505Z,3.90
2023-02-27T10:19:31.957Z,3.15
2023-02-27T10:22:41.134Z,3.50
2023-02-27T10:25:49.190Z,4.07
2023-02-27T10:28:52.125Z,3.05
2023-02-27T10:32:07.198Z,3.17
2023-02-27T10:35:13.112Z,3.70
2023-02-27T10:38:20.224Z,3.20
2023-02-27T10:41:23.832Z,3.70
2023-02-27T10:44:26.814Z,3.58
2023-02-27T10:47:30.087Z,3.85
2023-02-27T10:50:36.845Z,3.33
2023-02-27T10:53:39.308Z,3.28
2023-02-27T10:56:45.911Z,2.90
2023-02-27T10:59:55.774Z,3.35
2023-02-27T11:02:59.171Z,3.00
2023-02-27T11:06:22.457Z,3.28
2023-02-27T11:09:29.585Z,3.45
2023-02-27T11:12:35.169Z,3.00
2023-02-27T11:15:38.770Z,3.22
2023-02-27T11:22:20.587Z,3.28
2023-02-27T11:25:25.558Z,3.55
2023-02-27T11:28:30.797Z,3.47
2023-02-27T11:31:35.125Z,4.50
2023-02-27T11:34:50.851Z,3.58
2023-02-27T11:37:55.639Z,2.70
2023-02-27T11:41:07.738Z,3.37
2023-02-27T11:44:17.842Z,3.22
2023-02-27T11:47:38.884Z,3.40
2023-02-27T11:51:01.930Z,3.53
2023-02-27T11:54:34.744Z,4.95
2023-02-27T11:57:42.547Z,3.65
2023-02-27T12:00:52.665Z,3.72
2023-02-27T12:04:04.384Z,3.00
2023-02-27T12:07:23.054Z,3.65
2023-02-27T12:10:29.868Z,3.30
2023-02-27T12:13:38.528Z,4.07
2023-02-27T12:16:48.534Z,3.90
2023-02-27T12:20:25.029Z,4.03
2023-02-27T12:23:41.185Z,2.92
2023-02-27T12:26:48.840Z,3.00
2023-02-27T12:29:59.050Z,3.40
2023-02-27T12:33:12.028Z,3.58
2023-02-27T12:36:15.790Z,3.75
2023-02-27T12:39:23.812Z,3.15
2023-02-27T12:42:36.301Z,3.72
2023-02-27T12:46:14.357Z,3.35
2023-02-27T12:49:41.820Z,3.75
2023-02-27T12:53:13.082Z,3.95
2023-02-27T12:56:27.175Z,3.03
2023-02-27T12:59:54.668Z,3.60
2023-02-27T13:03:34.839Z,3.30
2023-02-27T13:06:37.447Z,3.87
2023-02-27T13:10:01.395Z,3.33
2023-02-27T13:13:16.291Z,3.58
2023-02-27T13:16:30.142Z,4.50
2023-02-27T13:19:44.881Z,3.62
2023-02-27T13:23:18.169Z,3.60
2023-02-27T13:26:33.165Z,3.65
2023-02-27T13:29:40.857Z,4.07
2023-02-27T13:32:52.441Z,4.05
2023-02-27T13:36:18.943Z,3.50
2023-02-27T13:39:40.437Z,3.58
2023-02-27T13:42:53.919Z,3.50
2023-02-27T13:45:58.837Z,3.95
2023-02-27T13:49:04.627Z,3.37
2023-02-27T13:52:07.062Z,3.40
2023-02-27T13:55:28.361Z,3.87
2023-02-27T13:58:31.072Z,3.58
2023-02-27T14:01:36.893Z,4.05
2023-02-27T14:04:50.300Z,3.60
2023-02-27T14:07:58.677Z,4.53
2023-02-27T14:11:10.741Z,3.40
2023-02-27T14:14:36.007Z,3.83
2023-02-27T14:17:44.839Z,4.07
2023-02-27T14:20:49.914Z,3.25
2023-02-27T14:23:54.521Z,3.95
2023-02-27T14:26:57.955Z,4.32
2023-02-27T14:30:04.725Z,4.20
2023-02-27T14:33:37.594Z,4.40
2023-02-27T14:36:51.133Z,3.80
2023-02-27T14:39:55.477Z,4.03
2023-02-27T14:43:21.584Z,4.43
2023-02-27T14:46:36.476Z,5.47
2023-02-27T14:49:39.479Z,4.35
2023-02-27T14:52:43.730Z,4.25
2023-02-27T14:55:54.404Z,4.10
2023-02-27T14:59:04.244Z,3.97
2023-02-27T15:02:35.405Z,4.65
2023-02-27T15:05:38.787Z,4.60
2023-02-27T15:08:45.360Z,4.00
2023-02-27T15:11:57.547Z,4.30
2023-02-27T15:15:06.125Z,3.72
2023-02-27T15:18:14.052Z,4.32
2023-02-27T15:21:18.460Z,4.70
2023-02-27T15:24:26.269Z,4.10
2023-02-27T15:27:30.137Z,3.70
2023-02-27T15:30:33.014Z,3.80
2023-02-27T15:33:36.767Z,4.22
2023-02-27T15:36:46.630Z,4.80
2023-02-27T15:39:51.317Z,4.30
2023-02-27T15:42:55.246Z,4.20
2023-02-27T15:45:58.515Z,4.03
2023-02-27T15:49:01.304Z,4.15
2023-02-27T15:52:20.501Z,4.53
2023-02-27T15:55:35.332Z,3.97
2023-02-27T15:58:50.455Z,5.05
2023-02-27T16:01:53.288Z,4.32
2023-02-27T16:04:56.558Z,5.30
2023-02-27T16:07:59.095Z,4.03
2023-02-27T16:11:04.080Z,4.22
2023-02-27T16:14:08.442Z,4.60
2023-02-27T16:17:28.583Z,3.95
2023-02-27T16:20:47.989Z,3.95
2023-02-27T16:23:51.247Z,5.15
2023-02-27T16:26:53.920Z,4.22
2023-02-27T16:30:02.872Z,4.22
2023-02-27T16:33:05.587Z,4.32
2023-02-27T16:36:20.393Z,4.18
2023-02-27T16:39:23.029Z,4.22
2023-02-27T16:42:25.760Z,4.40
2023-02-27T16:45:29.433Z,3.80
2023-02-27T16:48:32.227Z,4.07
